createdAt,value
2023-02-14T00:00:39.978Z,6.1
2023-02-14T00:01:48.305Z,6.1
2023-02-14T00:02:56.867Z,5.9
2023-02-14T00:04:05.195Z,5.9
2023-02-14T00:05:13.491Z,5.9
2023-02-14T00:06:22.029Z,6.1
2023-02-14T00:07:30.330Z,6.1
2023-02-14T00:08:38.667Z,6.1
2023-02-14T00:09:47.177Z,5.3
2023-02-14T00:10:55.502Z,5.3
2023-02-14T00:12:03.813Z,5.3
2023-02-14T00:13:12.333Z,6.5
2023-02-14T00:14:20.666Z,6.5
2023-02-14T00:15:28.993Z,6.5
2023-02-14T00:16:37.509Z,6.6
2023-02-14T00:17:45.829Z,6.6
2023-02-14T00:18:54.161Z,6.6
2023-02-14T00:20:02.684Z,7.2
2023-02-14T00:21:11.001Z,7.2
2023-02-14T00:22:19.352Z,7.2
2023-02-14T00:23:27.852Z,6.9
2023-02-14T00:24:36.159Z,6.9
2023-02-14T00:25:44.477Z,6.9
2023-02-14T00:26:53.007Z,7.9
2023-02-14T00:28:01.335Z,7.9
2023-02-14T00:29:09.655Z,7.9
2023-02-14T00:30:18.248Z,8
2023-02-14T00:31:26.538Z,8
2023-02-14T00:32:34.793Z,8
2023-02-14T00:33:43.335Z,8.1
2023-02-14T00:34:51.656Z,8.1
2023-02-14T00:35:59.964Z,8.1
2023-02-14T00:37:08.493Z,9
2023-02-14T00:38:16.839Z,9
2023-02-14T00:39:25.146Z,9
2023-02-14T00:40:33.666Z,9.8
2023-02-14T00:41:41.977Z,9.8
2023-02-14T00:42:50.300Z,9.8
2023-02-14T00:43:58.840Z,11.1
2023-02-14T00:45:07.164Z,11.1
2023-02-14T00:46:15.607Z,11.1
2023-02-14T00:47:24.008Z,11.7
2023-02-14T00:48:32.326Z,11.7
2023-02-14T00:49:40.649Z,11.7
2023-02-14T00:50:49.169Z,11.2
2023-02-14T00:51:57.505Z,11.2
2023-02-14T00:53:05.824Z,11.2
2023-02-14T00:54:14.382Z,11.1
2023-02-14T00:55:22.680Z,11.1
2023-02-14T00:56:31.024Z,11.1
2023-02-14T00:57:39.521Z,10.7
2023-02-14T00:58:47.862Z,10.7
2023-02-14T00:59:56.163Z,10.7
2023-02-14T01:01:04.741Z,11.7
2023-02-14T01:02:13.092Z,11.7
2023-02-14T01:03:21.321Z,11.7
2023-02-14T01:04:29.866Z,11
2023-02-14T01:05:38.188Z,11
2023-02-14T01:06:46.511Z,11
2023-02-14T01:07:55.033Z,10.5
2023-02-14T01:09:03.359Z,10.5
2023-02-14T01:10:11.705Z,10.5
2023-02-14T01:11:20.200Z,10.9
2023-02-14T01:12:28.526Z,10.9
2023-02-14T01:13:36.847Z,10.9
2023-02-14T01:14:45.380Z,12.3
2023-02-14T01:15:53.691Z,12.3
2023-02-14T01:17:02.012Z,12.3
2023-02-14T01:18:10.736Z,11.9
2023-02-14T01:19:20.308Z,11.9
2023-02-14T01:20:28.410Z,11.9
2023-02-14T01:21:36.924Z,11.5
2023-02-14T01:22:45.255Z,11.5
2023-02-14T01:23:53.572Z,11.5
2023-02-14T01:25:02.126Z,12.6
2023-02-14T01:26:10.485Z,12.6
2023-02-14T01:27:18.773Z,12.6
2023-02-14T01:28:27.288Z,10.9
2023-02-14T01:29:35.618Z,10.9
2023-02-14T01:30:43.992Z,10.9
2023-02-14T01:31:52.510Z,12.5
2023-02-14T01:33:00.795Z,12.5
2023-02-14T01:34:09.136Z,12.5
2023-02-14T01:35:17.656Z,12.7
2023-02-14T01:36:26.000Z,12.7
2023-02-14T01:37:34.306Z,12.7
2023-02-14T01:38:42.845Z,10.5
2023-02-14T01:39:51.165Z,10.5
2023-02-14T01:40:59.762Z,10.5
2023-02-14T01:42:08.025Z,12.3
2023-02-14T01:43:16.314Z,12.3
2023-02-14T01:44:24.633Z,12.3
2023-02-14T01:45:33.189Z,9.8
2023-02-14T01:46:41.489Z,9.8
2023-02-14T01:47:49.805Z,9.8
2023-02-14T01:48:58.333Z,11.2
2023-02-14T01:50:06.670Z,11.2
2023-02-14T01:51:15.027Z,11.2
2023-02-14T01:52:23.558Z,11.6
2023-02-14T01:53:31.893Z,11.6
2023-02-14T01:54:40.206Z,11.6
2023-02-14T01:55:48.724Z,11.3
2023-02-14T01:56:57.048Z,11.3
2023-02-14T01:58:05.413Z,11.3
2023-02-14T01:59:13.936Z,10.2
2023-02-14T02:00:22.231Z,10.2
2023-02-14T02:01:30.620Z,10.2
2023-02-14T02:02:39.190Z,10.7
2023-02-14T02:03:47.412Z,10.7
2023-02-14T02:04:55.744Z,10.7
2023-02-14T02:06:04.284Z,10
2023-02-14T02:07:12.595Z,10
2023-02-14T02:08:20.926Z,10
2023-02-14T02:09:29.467Z,10.1
2023-02-14T02:10:37.790Z,10.1
2023-02-14T02:11:46.105Z,10.1
2023-02-14T02:12:54.631Z,9.9
2023-02-14T02:14:02.997Z,9.9
2023-02-14T02:15:11.277Z,9.9
2023-02-14T02:16:19.826Z,9.3
2023-02-14T02:17:28.118Z,9.3
2023-02-14T02:18:36.435Z,9.3
2023-02-14T02:19:44.969Z,9.5
2023-02-14T02:20:53.283Z,9.5
2023-02-14T02:22:01.606Z,9.5
2023-02-14T02:23:10.136Z,10
2023-02-14T02:24:18.445Z,10
2023-02-14T02:25:26.767Z,10
2023-02-14T02:26:35.306Z,9.5
2023-02-14T02:27:43.615Z,9.5
2023-02-14T02:28:52.763Z,9.5
2023-02-14T02:30:01.364Z,10.4
2023-02-14T02:31:09.722Z,10.4
2023-02-14T02:32:17.942Z,10.4
2023-02-14T02:33:26.468Z,11.1
2023-02-14T02:34:34.788Z,11.1
2023-02-14T02:35:43.109Z,11.1
2023-02-14T02:36:51.641Z,9.8
2023-02-14T02:37:59.961Z,9.8
2023-02-14T02:39:08.287Z,9.8
2023-02-14T02:40:16.824Z,12.2
2023-02-14T02:41:25.127Z,12.2
2023-02-14T02:42:33.483Z,12.2
2023-02-14T02:43:42.019Z,9.6
2023-02-14T02:44:50.339Z,9.6
2023-02-14T02:45:58.767Z,9.6
2023-02-14T02:47:07.182Z,11.5
2023-02-14T02:48:15.512Z,11.5
2023-02-14T02:49:23.837Z,11.5
2023-02-14T02:50:32.381Z,8.8
2023-02-14T02:51:40.699Z,8.8
2023-02-14T02:52:49.019Z,8.8
2023-02-14T02:53:57.546Z,8
2023-02-14T02:55:05.877Z,8
2023-02-14T02:56:14.215Z,8
2023-02-14T02:57:22.758Z,9.6
2023-02-14T02:58:31.080Z,9.6
2023-02-14T02:59:39.405Z,9.6
2023-02-14T03:00:47.942Z,9.6
2023-02-14T03:01:56.306Z,9.6
2023-02-14T03:03:04.593Z,9.6
2023-02-14T03:04:13.133Z,9.3
2023-02-14T03:05:21.447Z,9.3
2023-02-14T03:06:29.765Z,9.3
2023-02-14T03:07:38.291Z,8.5
2023-02-14T03:08:46.615Z,8.5
2023-02-14T03:09:54.949Z,8.5
2023-02-14T03:11:03.492Z,7.6
2023-02-14T03:12:11.789Z,7.6
2023-02-14T03:13:20.113Z,7.6
2023-02-14T03:14:28.650Z,7.4
2023-02-14T03:15:37.009Z,7.4
2023-02-14T03:16:45.308Z,7.4
2023-02-14T03:17:53.878Z,8.5
2023-02-14T03:19:02.154Z,8.5
2023-02-14T03:20:10.506Z,8.5
2023-02-14T03:21:19.028Z,7.3
2023-02-14T03:22:27.330Z,7.3
2023-02-14T03:23:35.663Z,7.3
2023-02-14T03:24:44.190Z,7.7
2023-02-14T03:25:52.508Z,7.7
2023-02-14T03:27:00.827Z,7.7
2023-02-14T03:28:09.372Z,7.3
2023-02-14T03:29:17.682Z,7.3
2023-02-14T03:30:26.116Z,7.3
2023-02-14T03:31:34.632Z,7.1
2023-02-14T03:32:42.883Z,7.1
2023-02-14T03:33:51.226Z,7.1
2023-02-14T03:34:59.740Z,6.2
2023-02-14T03:36:08.067Z,6.2
2023-02-14T03:37:16.390Z,6.2
2023-02-14T03:38:24.918Z,6.8
2023-02-14T03:39:33.227Z,6.8
2023-02-14T03:40:41.558Z,6.8
2023-02-14T03:41:50.093Z,8.2
2023-02-14T03:42:58.407Z,8.2
2023-02-14T03:44:06.730Z,8.2
2023-02-14T03:45:15.315Z,7.1
2023-02-14T03:46:23.592Z,7.1
2023-02-14T03:47:31.888Z,7.1
2023-02-14T03:48:40.431Z,6.3
2023-02-14T03:49:48.761Z,6.3
2023-02-14T03:50:57.288Z,6.3
2023-02-14T03:52:05.577Z,7.6
2023-02-14T03:53:13.897Z,7.6
2023-02-14T03:54:22.212Z,7.6
2023-02-14T03:55:30.739Z,8.3
2023-02-14T03:56:39.066Z,8.3
2023-02-14T03:57:47.380Z,8.3
2023-02-14T03:58:55.915Z,8.3
2023-02-14T04:00:04.498Z,8.3
2023-02-14T04:01:12.886Z,8.3
2023-02-14T04:02:21.350Z,7.1
2023-02-14T04:03:29.706Z,7.1
2023-02-14T04:04:37.994Z,7.1
2023-02-14T04:05:46.569Z,6.6
2023-02-14T04:06:54.873Z,6.6
2023-02-14T04:08:03.175Z,6.6
2023-02-14T04:09:11.705Z,7.3
2023-02-14T04:10:20.029Z,7.3
2023-02-14T04:11:28.380Z,7.3
2023-02-14T04:12:38.114Z,5.9
2023-02-14T04:13:45.224Z,5.9
2023-02-14T04:14:53.534Z,5.9
2023-02-14T04:16:02.104Z,6.8
2023-02-14T04:17:10.397Z,6.8
2023-02-14T04:18:18.715Z,6.8
2023-02-14T04:19:27.234Z,6.6
2023-02-14T04:20:35.547Z,6.6
2023-02-14T04:21:43.899Z,6.6
2023-02-14T04:22:52.412Z,5.7
2023-02-14T04:24:00.722Z,5.7
2023-02-14T04:25:09.041Z,5.7
2023-02-14T04:26:17.578Z,7.4
2023-02-14T04:27:25.890Z,7.4
2023-02-14T04:28:34.212Z,7.4
2023-02-14T04:29:42.722Z,6.5
2023-02-14T04:30:51.067Z,6.5
2023-02-14T04:31:59.522Z,6.5
2023-02-14T04:33:07.909Z,7.3
2023-02-14T04:34:16.258Z,7.3
2023-02-14T04:35:24.558Z,7.3
2023-02-14T04:36:33.090Z,6.4
2023-02-14T04:37:41.442Z,6.4
2023-02-14T04:38:49.724Z,6.4
2023-02-14T04:39:58.250Z,7
2023-02-14T04:41:06.570Z,7
2023-02-14T04:42:14.904Z,7
2023-02-14T04:43:23.433Z,7.5
2023-02-14T04:44:31.746Z,7.5
2023-02-14T04:45:40.072Z,7.5
2023-02-14T04:46:48.657Z,7.8
2023-02-14T04:47:56.923Z,7.8
2023-02-14T04:49:05.244Z,7.8
2023-02-14T04:50:13.783Z,8.1
2023-02-14T04:51:22.103Z,8.1
2023-02-14T04:52:30.420Z,8.1
2023-02-14T04:53:38.973Z,9.5
2023-02-14T04:54:47.259Z,9.5
2023-02-14T04:55:55.585Z,9.5
2023-02-14T04:57:04.124Z,10.7
2023-02-14T04:58:12.453Z,10.7
2023-02-14T04:59:20.783Z,10.7
2023-02-14T05:00:29.306Z,10.3
2023-02-14T05:01:37.687Z,10.3
2023-02-14T05:02:45.960Z,10.3
2023-02-14T05:03:54.476Z,7.2
2023-02-14T05:05:02.800Z,7.2
2023-02-14T05:06:11.125Z,7.2
2023-02-14T05:07:19.670Z,6.4
2023-02-14T05:08:27.965Z,6.4
2023-02-14T05:09:36.315Z,6.4
2023-02-14T05:10:44.816Z,8.2
2023-02-14T05:11:53.139Z,8.2
2023-02-14T05:13:01.449Z,8.2
2023-02-14T05:14:09.971Z,9.7
2023-02-14T05:15:18.313Z,9.7
2023-02-14T05:16:26.723Z,9.7
2023-02-14T05:17:35.162Z,8.4
2023-02-14T05:18:43.486Z,8.4
2023-02-14T05:19:51.808Z,8.4
2023-02-14T05:21:00.767Z,6.9
2023-02-14T05:22:08.669Z,6.9
2023-02-14T05:23:17.003Z,6.9
2023-02-14T05:24:25.507Z,7.9
2023-02-14T05:25:33.852Z,7.9
2023-02-14T05:26:42.158Z,7.9
2023-02-14T05:27:50.701Z,7.4
2023-02-14T05:28:58.997Z,7.4
2023-02-14T05:30:07.381Z,7.4
2023-02-14T05:31:16.019Z,7.5
2023-02-14T05:32:24.180Z,7.5
2023-02-14T05:33:32.501Z,7.5
2023-02-14T05:34:41.031Z,6.4
2023-02-14T05:35:49.340Z,6.4
2023-02-14T05:36:57.669Z,6.4
2023-02-14T05:38:06.217Z,6.7
2023-02-14T05:39:14.609Z,6.7
2023-02-14T05:41:24.162Z,6.9
2023-02-14T05:42:32.482Z,6.9
2023-02-14T05:43:40.782Z,6.9
2023-02-14T05:44:49.319Z,7.4
2023-02-14T05:45:57.739Z,7.4
2023-02-14T05:47:05.966Z,7.4
2023-02-14T05:48:14.502Z,7.1
2023-02-14T05:49:22.822Z,7.1
2023-02-14T05:50:31.139Z,7.1
2023-02-14T05:51:39.685Z,6.5
2023-02-14T05:52:48.005Z,6.5
2023-02-14T05:53:56.302Z,6.5
2023-02-14T05:55:04.826Z,8.3
2023-02-14T05:56:13.149Z,8.3
2023-02-14T05:57:21.500Z,8.3
2023-02-14T05:58:29.992Z,7.3
2023-02-14T05:59:38.321Z,7.3
2023-02-14T06:00:46.666Z,7.3
2023-02-14T06:01:55.241Z,7.5
2023-02-14T06:03:03.526Z,7.5
2023-02-14T06:04:11.939Z,7.5
2023-02-14T06:05:20.442Z,9.4
2023-02-14T06:06:28.769Z,9.4
2023-02-14T06:07:37.107Z,9.4
2023-02-14T06:08:45.637Z,9.7
2023-02-14T06:09:53.953Z,9.7
2023-02-14T06:11:02.611Z,9.7
2023-02-14T06:12:10.935Z,12.1
2023-02-14T06:13:19.354Z,12.1
2023-02-14T06:14:27.630Z,12.1
2023-02-14T06:15:36.162Z,10.9
2023-02-14T06:16:44.557Z,10.9
2023-02-14T06:17:52.835Z,10.9
2023-02-14T06:19:01.363Z,11.5
2023-02-14T06:20:09.699Z,11.5
2023-02-14T06:21:18.021Z,11.5
2023-02-14T06:22:26.794Z,10.3
2023-02-14T06:23:34.853Z,10.3
2023-02-14T06:24:43.172Z,10.3
2023-02-14T06:25:51.719Z,10.1
2023-02-14T06:27:00.052Z,10.1
2023-02-14T06:28:08.393Z,10.1
2023-02-14T06:29:16.953Z,7.8
2023-02-14T06:30:25.444Z,7.8
2023-02-14T06:31:33.678Z,7.8
2023-02-14T06:32:42.182Z,11.9
2023-02-14T06:33:50.510Z,11.9
2023-02-14T06:34:58.852Z,11.9
2023-02-14T06:36:07.381Z,10.4
2023-02-14T06:37:15.719Z,10.4
2023-02-14T06:38:24.054Z,10.4
2023-02-14T06:39:32.579Z,11.8
2023-02-14T06:40:40.897Z,11.8
2023-02-14T06:41:49.245Z,11.8
2023-02-14T06:42:57.794Z,12.5
2023-02-14T06:44:06.126Z,12.5
2023-02-14T06:45:14.504Z,12.5
2023-02-14T06:46:23.091Z,12.6
2023-02-14T06:47:32.371Z,12.6
2023-02-14T06:48:39.687Z,12.6
2023-02-14T06:49:48.234Z,16.200001
2023-02-14T06:50:56.555Z,16.200001
2023-02-14T06:52:04.913Z,16.200001
2023-02-14T06:53:13.455Z,15.5
2023-02-14T06:54:21.878Z,15.5
2023-02-14T06:55:30.216Z,15.5
2023-02-14T06:56:38.757Z,14.2
2023-02-14T06:57:47.101Z,14.2
2023-02-14T06:58:55.435Z,14.2
2023-02-14T07:00:03.982Z,14.8
2023-02-14T07:01:12.453Z,14.8
2023-02-14T07:02:22.301Z,14.8
2023-02-14T07:03:29.194Z,17
2023-02-14T07:04:37.536Z,17
2023-02-14T07:05:45.851Z,17
2023-02-14T07:06:54.398Z,26.799999
2023-02-14T07:08:03.720Z,26.799999
2023-02-14T07:09:12.278Z,26.799999
2023-02-14T07:10:23.167Z,25.5
2023-02-14T07:11:31.504Z,25.5
2023-02-14T07:12:39.869Z,25.5
2023-02-14T07:13:49.510Z,15.4
2023-02-14T07:14:56.739Z,15.4
2023-02-14T07:16:05.137Z,15.4
2023-02-14T07:17:13.677Z,15.2
2023-02-14T07:18:21.990Z,15.2
2023-02-14T07:19:30.305Z,15.2
2023-02-14T07:20:38.859Z,16.799999
2023-02-14T07:21:47.228Z,16.799999
2023-02-14T07:22:55.556Z,16.799999
2023-02-14T07:24:04.083Z,23.200001
2023-02-14T07:25:12.411Z,23.200001
2023-02-14T07:26:20.734Z,23.200001
2023-02-14T07:27:29.277Z,22.1
2023-02-14T07:28:37.630Z,22.1
2023-02-14T07:29:45.971Z,22.1
2023-02-14T07:30:54.617Z,28.200001
2023-02-14T07:32:03.035Z,28.200001
2023-02-14T07:33:11.221Z,28.200001
2023-02-14T07:34:19.728Z,30.4
2023-02-14T07:35:28.049Z,30.4
2023-02-14T07:36:36.385Z,30.4
2023-02-14T07:37:44.960Z,23.200001
2023-02-14T07:38:53.282Z,23.200001
2023-02-14T07:40:05.327Z,23.200001
2023-02-14T07:41:13.425Z,20.200001
2023-02-14T07:42:21.763Z,20.200001
2023-02-14T07:43:30.099Z,20.200001
2023-02-14T07:44:38.752Z,17
2023-02-14T07:45:47.543Z,17
2023-02-14T07:46:55.895Z,17
2023-02-14T07:48:04.452Z,17.6
2023-02-14T07:49:12.797Z,17.6
2023-02-14T07:50:21.090Z,17.6
2023-02-14T07:51:29.644Z,17.4
2023-02-14T07:52:37.976Z,17.4
2023-02-14T07:53:46.303Z,17.4
2023-02-14T07:54:54.830Z,17.200001
2023-02-14T07:56:03.160Z,17.200001
2023-02-14T07:57:11.474Z,17.200001
2023-02-14T07:58:20.018Z,17.799999
2023-02-14T07:59:28.328Z,17.799999
2023-02-14T08:00:36.668Z,17.799999
2023-02-14T08:01:45.302Z,17
2023-02-14T08:02:53.601Z,17
2023-02-14T08:04:01.906Z,17
2023-02-14T08:05:10.533Z,15.9
2023-02-14T08:06:18.779Z,15.9
2023-02-14T08:07:27.121Z,15.9
2023-02-14T08:08:35.670Z,14.3
2023-02-14T08:09:43.997Z,14.3
2023-02-14T08:10:52.332Z,14.3
2023-02-14T08:12:00.861Z,19.4
2023-02-14T08:13:09.216Z,19.4
2023-02-14T08:14:17.550Z,19.4
2023-02-14T08:15:26.076Z,23.6
2023-02-14T08:16:34.476Z,23.6
2023-02-14T08:17:42.738Z,23.6
2023-02-14T08:18:51.278Z,22.200001
2023-02-14T08:19:59.598Z,22.200001
2023-02-14T08:21:07.996Z,22.200001
2023-02-14T08:22:16.457Z,20.5
2023-02-14T08:23:24.787Z,20.5
2023-02-14T08:24:33.115Z,20.5
2023-02-14T08:25:41.673Z,16.9
2023-02-14T08:26:49.987Z,16.9
2023-02-14T08:27:58.350Z,16.9
2023-02-14T08:29:06.883Z,15.2
2023-02-14T08:30:15.237Z,15.2
2023-02-14T08:31:33.537Z,15.2
2023-02-14T08:32:32.261Z,16.4
2023-02-14T08:33:40.483Z,16.4
2023-02-14T08:34:48.814Z,16.4
2023-02-14T08:35:57.375Z,15.5
2023-02-14T08:37:05.743Z,15.5
2023-02-14T08:38:14.064Z,15.5
2023-02-14T08:39:22.604Z,11.5
2023-02-14T08:40:30.932Z,11.5
2023-02-14T08:41:39.255Z,11.5
2023-02-14T08:42:47.821Z,10.7
2023-02-14T08:43:56.140Z,10.7
2023-02-14T08:45:04.525Z,10.7
2023-02-14T08:46:13.106Z,9.8
2023-02-14T08:47:21.420Z,9.8
2023-02-14T08:48:29.729Z,9.8
2023-02-14T08:49:38.269Z,9.2
2023-02-14T08:50:46.590Z,9.2
2023-02-14T08:51:54.932Z,9.2
2023-02-14T08:53:03.504Z,10.4
2023-02-14T08:54:11.818Z,10.4
2023-02-14T08:55:20.144Z,10.4
2023-02-14T08:56:28.722Z,10.8
2023-02-14T08:57:37.041Z,10.8
2023-02-14T08:58:45.387Z,10.8
2023-02-14T08:59:53.931Z,9
2023-02-14T09:01:02.666Z,9
2023-02-14T09:02:10.590Z,9
2023-02-14T09:03:19.161Z,8
2023-02-14T09:04:27.555Z,8
2023-02-14T09:05:35.851Z,8
2023-02-14T09:06:44.361Z,6.5
2023-02-14T09:07:52.696Z,6.5
2023-02-14T09:09:02.520Z,6.5
2023-02-14T09:10:09.587Z,6.8
2023-02-14T09:11:17.956Z,6.8
2023-02-14T09:12:26.282Z,6.8
2023-02-14T09:13:34.792Z,7.9
2023-02-14T09:14:43.138Z,7.9
2023-02-14T09:15:51.477Z,7.9
2023-02-14T09:17:00.185Z,5.3
2023-02-14T09:18:08.354Z,5.3
2023-02-14T09:19:17.317Z,5.3
2023-02-14T09:20:25.953Z,2.5
2023-02-14T09:21:34.306Z,2.5
2023-02-14T09:22:42.686Z,2.5
2023-02-14T09:23:51.123Z,2.6
2023-02-14T09:24:59.478Z,2.6
2023-02-14T09:26:07.877Z,2.6
2023-02-14T09:27:16.361Z,1.7
2023-02-14T09:28:24.713Z,1.7
2023-02-14T09:29:33.040Z,1.7
2023-02-14T09:30:41.574Z,1.4
2023-02-14T09:31:49.945Z,1.4
2023-02-14T09:32:58.242Z,1.4
2023-02-14T09:34:06.780Z,3.1
2023-02-14T09:35:15.119Z,3.1
2023-02-14T09:36:23.465Z,3.1
2023-02-14T09:37:32.044Z,8.2
2023-02-14T09:38:40.382Z,8.2
2023-02-14T09:39:48.705Z,8.2
2023-02-14T09:40:57.420Z,10.5
2023-02-14T09:42:05.558Z,10.5
2023-02-14T09:43:13.917Z,10.5
2023-02-14T09:44:22.425Z,11.5
2023-02-14T09:45:30.811Z,11.5
2023-02-14T09:46:39.082Z,11.5
2023-02-14T09:47:47.614Z,8.5
2023-02-14T09:48:56.000Z,8.5
2023-02-14T09:50:04.355Z,8.5
2023-02-14T09:51:12.809Z,7
2023-02-14T09:52:21.164Z,7
2023-02-14T09:53:29.524Z,7
2023-02-14T09:54:38.087Z,8.6
2023-02-14T09:55:46.414Z,8.6
2023-02-14T09:56:54.760Z,8.6
2023-02-14T09:58:03.274Z,6.4
2023-02-14T09:59:11.591Z,6.4
2023-02-14T10:00:19.909Z,6.4
2023-02-14T10:01:28.537Z,5.8
2023-02-14T10:02:36.834Z,5.8
2023-02-14T10:03:45.102Z,5.8
2023-02-14T10:04:53.629Z,5.9
2023-02-14T10:06:01.953Z,5.9
2023-02-14T10:07:10.300Z,5.9
2023-02-14T10:08:18.826Z,3.6
2023-02-14T10:09:27.177Z,3.6
2023-02-14T10:10:36.648Z,3.6
2023-02-14T10:11:44.106Z,2.5
2023-02-14T10:12:52.508Z,2.5
2023-02-14T10:14:00.787Z,2.5
2023-02-14T10:15:09.331Z,4.7
2023-02-14T10:16:17.735Z,4.7
2023-02-14T10:17:26.018Z,4.7
2023-02-14T10:18:34.595Z,5.8
2023-02-14T10:19:42.938Z,5.8
2023-02-14T10:20:51.264Z,5.8
2023-02-14T10:21:59.783Z,5
2023-02-14T10:23:08.119Z,5
2023-02-14T10:24:16.452Z,5
2023-02-14T10:25:25.002Z,2.9
2023-02-14T10:26:33.348Z,2.9
2023-02-14T10:27:41.675Z,2.9
2023-02-14T10:28:50.196Z,4.3
2023-02-14T10:29:58.562Z,4.3
2023-02-14T10:31:06.959Z,4.3
2023-02-14T10:32:15.452Z,3.9
2023-02-14T10:33:23.755Z,3.9
2023-02-14T10:34:32.224Z,3.9
2023-02-14T10:35:40.749Z,3.7
2023-02-14T10:36:49.086Z,3.7
2023-02-14T10:37:57.456Z,3.7
2023-02-14T10:39:05.995Z,6.4
2023-02-14T10:40:16.496Z,6.4
2023-02-14T10:41:22.628Z,6.4
2023-02-14T10:42:31.195Z,7.7
2023-02-14T10:43:39.549Z,7.7
2023-02-14T10:44:47.853Z,7.7
2023-02-14T10:45:56.442Z,8.3
2023-02-14T10:47:04.736Z,8.3
2023-02-14T10:48:13.058Z,8.3
2023-02-14T10:49:22.844Z,9.9
2023-02-14T10:50:31.173Z,9.9
2023-02-14T10:51:39.507Z,9.9
2023-02-14T10:52:48.038Z,6.7
2023-02-14T10:53:56.385Z,6.7
2023-02-14T10:55:04.707Z,6.7
2023-02-14T10:56:13.242Z,6.5
2023-02-14T10:57:21.574Z,6.5
2023-02-14T10:58:29.920Z,6.5
2023-02-14T10:59:38.532Z,8.2
2023-02-14T11:00:46.947Z,8.2
2023-02-14T11:01:55.194Z,8.2
2023-02-14T11:03:03.736Z,9
2023-02-14T11:04:12.074Z,9
2023-02-14T11:05:20.409Z,9
2023-02-14T11:06:28.948Z,9.7
2023-02-14T11:07:37.278Z,9.7
2023-02-14T11:08:45.630Z,9.7
2023-02-14T11:09:54.169Z,9.5
2023-02-14T11:11:02.853Z,9.5
2023-02-14T11:12:10.845Z,9.5
2023-02-14T11:13:19.384Z,9.2
2023-02-14T11:14:27.719Z,9.2
2023-02-14T11:15:36.077Z,9.2
2023-02-14T11:16:44.637Z,8.9
2023-02-14T11:17:52.908Z,8.9
2023-02-14T11:19:01.237Z,8.9
2023-02-14T11:20:09.786Z,7.7
2023-02-14T11:21:18.112Z,7.7
2023-02-14T11:22:26.449Z,7.7
2023-02-14T11:23:34.985Z,7.1
2023-02-14T11:24:43.324Z,7.1
2023-02-14T11:25:51.667Z,7.1
2023-02-14T11:27:00.186Z,6.8
2023-02-14T11:28:08.516Z,6.8
2023-02-14T11:29:16.874Z,6.8
2023-02-14T11:30:25.468Z,7.7
2023-02-14T11:31:33.952Z,7.7
2023-02-14T11:32:42.096Z,7.7
2023-02-14T11:33:50.628Z,8.5
2023-02-14T11:34:58.987Z,8.5
2023-02-14T11:36:07.319Z,8.5
2023-02-14T11:37:15.846Z,7.4
2023-02-14T11:38:24.218Z,7.4
2023-02-14T11:39:32.677Z,7.4
2023-02-14T11:40:42.878Z,7.1
2023-02-14T11:41:51.198Z,7.1
2023-02-14T11:43:13.273Z,7.1
2023-02-14T11:44:08.060Z,5.9
2023-02-14T11:45:16.519Z,5.9
2023-02-14T11:46:24.928Z,5.9
2023-02-14T11:47:33.662Z,5.4
2023-02-14T11:48:42.767Z,5.4
2023-02-14T11:49:51.295Z,5.4
2023-02-14T11:51:00.941Z,4.6
2023-02-14T11:52:10.260Z,4.6
2023-02-14T11:53:17.571Z,4.6
2023-02-14T11:54:26.183Z,3.8
2023-02-14T11:55:34.607Z,3.8
2023-02-14T11:56:42.979Z,3.8
2023-02-14T11:57:51.670Z,3.4
2023-02-14T11:59:00.359Z,3.4
2023-02-14T12:00:08.733Z,3.4
2023-02-14T12:01:17.317Z,3.2
2023-02-14T12:02:26.553Z,3.2
2023-02-14T12:03:34.796Z,3.2
2023-02-14T12:04:46.397Z,4.2
2023-02-14T12:05:52.105Z,4.2
2023-02-14T12:07:00.500Z,4.2
2023-02-14T12:08:12.226Z,3.9
2023-02-14T12:09:24.329Z,3.9
2023-02-14T12:10:32.729Z,3.9
2023-02-14T12:11:41.317Z,3.4
2023-02-14T12:12:49.733Z,3.4
2023-02-14T12:13:58.100Z,3.4
2023-02-14T12:15:06.677Z,3.5
2023-02-14T12:16:15.040Z,3.5
2023-02-14T12:17:23.427Z,3.5
2023-02-14T12:18:32.022Z,3.6
2023-02-14T12:19:40.400Z,3.6
2023-02-14T12:20:48.772Z,3.6
2023-02-14T12:21:57.371Z,3.3
2023-02-14T12:23:05.731Z,3.3
2023-02-14T12:24:14.127Z,3.3
2023-02-14T12:25:22.769Z,2.9
2023-02-14T12:26:31.150Z,2.9
2023-02-14T12:27:39.532Z,2.9
2023-02-14T12:28:48.144Z,3.4
2023-02-14T12:29:56.553Z,3.4
2023-02-14T12:31:04.980Z,3.4
2023-02-14T12:32:13.624Z,3.3
2023-02-14T12:33:21.853Z,3.3
2023-02-14T12:34:30.204Z,3.3
2023-02-14T12:35:38.852Z,3.1
2023-02-14T12:36:47.195Z,3.1
2023-02-14T12:38:02.903Z,3.1
2023-02-14T12:39:04.135Z,2.9
2023-02-14T12:40:12.510Z,2.9
2023-02-14T12:41:20.877Z,2.9
2023-02-14T12:42:29.477Z,2.6
2023-02-14T12:43:37.801Z,2.6
2023-02-14T12:44:46.188Z,2.6
2023-02-14T12:45:54.792Z,1.9
2023-02-14T12:47:03.991Z,1.9
2023-02-14T12:48:18.133Z,1.9
2023-02-14T12:49:26.718Z,2
2023-02-14T12:50:35.100Z,2
2023-02-14T12:51:43.493Z,2
2023-02-14T12:52:52.060Z,1.6
2023-02-14T12:54:01.909Z,1.6
2023-02-14T12:55:10.299Z,1.6
2023-02-14T12:56:18.896Z,2.1
2023-02-14T12:57:27.266Z,2.1
2023-02-14T12:58:35.629Z,2.1
2023-02-14T12:59:44.220Z,2.4
2023-02-14T13:00:52.591Z,2.4
2023-02-14T13:02:00.972Z,2.4
2023-02-14T13:03:09.590Z,5.5
2023-02-14T13:04:17.878Z,5.5
2023-02-14T13:05:26.255Z,5.5
2023-02-14T13:06:34.830Z,3.3
2023-02-14T13:07:43.227Z,3.3
2023-02-14T13:08:51.565Z,3.3
2023-02-14T13:10:00.187Z,2
2023-02-14T13:11:08.514Z,2
2023-02-14T13:12:16.933Z,2
2023-02-14T13:13:26.175Z,2.1
2023-02-14T13:14:34.528Z,2.1
2023-02-14T13:15:42.924Z,2.1
2023-02-14T13:16:51.552Z,1.9
2023-02-14T13:18:00.128Z,1.9
2023-02-14T13:19:08.464Z,1.9
2023-02-14T13:20:17.062Z,1.3
2023-02-14T13:21:25.432Z,1.3
2023-02-14T13:22:33.833Z,1.3
2023-02-14T13:23:42.443Z,3.3
2023-02-14T13:24:50.809Z,3.3
2023-02-14T13:25:59.209Z,3.3
2023-02-14T13:27:07.788Z,2.6
2023-02-14T13:28:16.276Z,2.6
2023-02-14T13:29:24.659Z,2.6
2023-02-14T13:30:33.465Z,2.9
2023-02-14T13:31:41.757Z,2.9
2023-02-14T13:32:50.027Z,2.9
2023-02-14T13:33:58.617Z,1.9
2023-02-14T13:35:06.978Z,1.9
2023-02-14T13:36:15.349Z,1.9
2023-02-14T13:37:23.929Z,2.2
2023-02-14T13:38:32.316Z,2.2
2023-02-14T13:39:41.934Z,2.2
2023-02-14T13:40:49.402Z,2
2023-02-14T13:41:57.785Z,2
2023-02-14T13:43:06.157Z,2
2023-02-14T13:44:14.772Z,3.1
2023-02-14T13:45:23.179Z,3.1
2023-02-14T13:46:32.077Z,3.1
2023-02-14T13:47:40.623Z,2.5
2023-02-14T13:48:49.007Z,2.5
2023-02-14T13:49:57.392Z,2.5
2023-02-14T13:51:06.554Z,4.3
2023-02-14T13:52:14.950Z,4.3
2023-02-14T13:53:23.326Z,4.3
2023-02-14T13:54:31.922Z,2.8
2023-02-14T13:55:40.298Z,2.8
2023-02-14T13:56:48.651Z,2.8
2023-02-14T13:57:57.272Z,1.8
2023-02-14T13:59:05.640Z,1.8
2023-02-14T14:00:14.047Z,1.8
2023-02-14T14:01:22.706Z,1.5
2023-02-14T14:02:31.127Z,1.5
2023-02-14T14:03:39.537Z,1.5
2023-02-14T14:04:48.047Z,1.5
2023-02-14T14:05:56.418Z,1.5
2023-02-14T14:07:04.845Z,1.5
2023-02-14T14:08:13.368Z,1.8
2023-02-14T14:09:21.751Z,1.8
2023-02-14T14:10:30.140Z,1.8
2023-02-14T14:11:38.749Z,2.1
2023-02-14T14:12:47.091Z,2.1
2023-02-14T14:13:55.483Z,2.1
2023-02-14T14:15:04.050Z,2.3
2023-02-14T14:16:12.430Z,2.3
2023-02-14T14:17:20.812Z,2.3
2023-02-14T14:18:29.395Z,1.4
2023-02-14T14:19:37.762Z,1.4
2023-02-14T14:20:46.125Z,1.4
2023-02-14T14:21:54.714Z,1.9
2023-02-14T14:23:03.116Z,1.9
2023-02-14T14:24:11.504Z,1.9
2023-02-14T14:25:20.164Z,1.5
2023-02-14T14:26:28.538Z,1.5
2023-02-14T14:27:36.958Z,1.5
2023-02-14T14:28:45.486Z,2
2023-02-14T14:29:53.866Z,2
2023-02-14T14:31:02.234Z,2
2023-02-14T15:04:32.386Z,0
2023-02-14T15:05:40.614Z,0
2023-02-14T15:06:49.237Z,0
2023-02-14T15:07:57.877Z,3.4
2023-02-14T15:09:06.236Z,3.4
2023-02-14T15:10:14.668Z,3.4
2023-02-14T15:11:23.336Z,2.6
2023-02-14T15:12:31.809Z,2.6
2023-02-14T15:13:40.185Z,2.6
2023-02-14T15:14:48.813Z,1.9
2023-02-14T15:15:57.229Z,1.9
2023-02-14T15:17:05.636Z,1.9
2023-02-14T15:18:14.269Z,2.8
2023-02-14T15:19:22.726Z,2.8
2023-02-14T15:20:31.107Z,2.8
2023-02-14T15:21:39.714Z,2.2
2023-02-14T15:22:48.129Z,2.2
2023-02-14T15:23:56.530Z,2.2
2023-02-14T15:25:05.065Z,2.4
2023-02-14T15:26:13.469Z,2.4
2023-02-14T15:27:21.862Z,2.4
2023-02-14T15:28:30.471Z,2.4
2023-02-14T15:29:38.786Z,2.4
2023-02-14T15:30:47.264Z,2.4
2023-02-14T15:31:55.823Z,3.3
2023-02-14T15:33:04.107Z,3.3
2023-02-14T15:34:12.458Z,3.3
2023-02-14T15:35:21.007Z,3.6
2023-02-14T15:36:29.390Z,3.6
2023-02-14T15:37:37.756Z,3.6
2023-02-14T15:38:46.301Z,4.9
2023-02-14T15:39:54.668Z,4.9
2023-02-14T15:41:03.194Z,4.9
2023-02-14T15:42:11.635Z,6.3
2023-02-14T15:43:20.011Z,6.3
2023-02-14T15:44:28.376Z,6.3
2023-02-14T15:45:36.937Z,5.2
2023-02-14T15:46:45.333Z,5.2
2023-02-14T15:47:53.719Z,5.2
2023-02-14T15:49:02.244Z,2.9
2023-02-14T15:50:10.613Z,2.9
2023-02-14T15:51:18.979Z,2.9
2023-02-14T15:52:27.589Z,3
2023-02-14T15:53:35.923Z,3
2023-02-14T15:54:44.274Z,3
2023-02-14T15:55:52.854Z,3.9
2023-02-14T15:57:01.231Z,3.9
2023-02-14T15:58:09.597Z,3.9
2023-02-14T15:59:18.210Z,3.9
2023-02-14T16:00:26.541Z,3.9
2023-02-14T16:01:34.986Z,3.9
2023-02-14T16:02:43.583Z,3.5
2023-02-14T16:03:51.889Z,3.5
2023-02-14T16:05:00.215Z,3.5
2023-02-14T16:06:08.772Z,3